Etusivu
METAR-TAF:

METAR-TAF

Lentoasemat :

Sandefjordin lentoasema

Sandefjord, Norja

Leveyspiiri: 59-12N, Pituuspiiri: 010-16E, korkeus merenpinnasta: 8 m

Tämänhetkinen sää

Tämä raportti tehtiin 41 minuuttia sitten, kello 01.20 UTC
Tuuli 4 kn lännestä
Lämpötila 11°C
Kosteus 82%
Ilmanpaine 1007 hPa
Näkyvyys 10 km tai enemmän

METAR: ENTO 190120Z AUTO 28004KT 9999 NCD 11/08 Q1007

Aika: 04:01 (02:01 UTC)

Sääennuste

Tämä raportti tehtiin 3 tuntia ja 1 minuuttia sitten, kello 23.00 UTC
Ennuste voimassa 19. päivästä klo 00 UTC - 19. päivään klo 24 UTC
Tuuli 5 kn lännestä
Näkyvyys 10 km tai enemmän
Muutamia pilviä 4000 ft:n korkeudessa
Ajoittain
19. päivästä klo 11 UTC - 19. päivään klo 18 UTC
Hajanaisia pilviä 3000 ft:n korkeudessa, Cumulonimbus.
Hajonneita pilviä 4000 ft:n korkeudessa
vesikuuroja,

TAF: ENTO 182300Z 1900/1924 28005KT 9999 FEW040 TEMPO 1911/1918 SHRA SCT030CB BKN040

Säähavainnot ja -ennusteet yli 4000 lentoasemalta (METAR- ja TAF-raportit).

Käytössä olevat sääasemat on merkitty karttaan keltaisilla ja punaisilla pisteillä.

Aseta hiiri pisteen päälle nähdäksesi sääaseman nimen.

Klikkaa sitten nähdäksesi säähavainnot ja -ennusteet.

Kartan vaihtaminen: klikkaa mustalla rastilla varustettuja vihreitä pisteitä, niin voit zoomata sisään; viivalla varustettua vihreää pistettä, niin voit zoomata ulos tai vihreitä nuolia, niin pääset viereisille kartoille.


METAR-TAF: